Time;durP1;ratioP1;P1;durP2;ratioP2;P2;SDS_P1;SDS_P2;PMS_P1;PMS_P2;Temp;Humidity;BMP_temperature;BMP_pressure;BME280_temperature;BME280_humidity;BME280_pressure;Samples;Min_cycle;Max_cycle;Signal;HPM_P1;HPM_P2
2024/04/05 00:01:28;;;;;;;8.20;4.50;;;14.00;99.90;;;;;;5012016;28;20467;-60
2024/04/05 00:03:55;;;;;;;6.57;5.40;;;14.10;99.90;;;;;;5011183;28;20216;-60
2024/04/05 00:06:21;;;;;;;9.20;3.80;;;14.10;99.90;;;;;;5012798;28;20484;-60
2024/04/05 00:08:47;;;;;;;4.10;3.77;;;14.10;99.90;;;;;;5011427;28;20422;-60
2024/04/05 00:11:13;;;;;;;7.37;3.63;;;14.20;99.90;;;;;;5012098;28;20408;-60
2024/04/05 00:13:39;;;;;;;8.27;5.23;;;14.20;99.90;;;;;;5011338;28;20603;-60
2024/04/05 00:16:06;;;;;;;7.87;3.87;;;14.20;99.90;;;;;;5012157;28;20428;-60
2024/04/05 00:18:35;;;;;;;9.03;3.67;;;14.10;99.90;;;;;;5010529;28;20189;-60
2024/04/05 00:21:04;;;;;;;10.57;3.60;;;14.20;99.90;;;;;;5012341;28;20448;-60
2024/04/05 00:23:34;;;;;;;6.00;5.40;;;14.30;99.90;;;;;;5011571;28;20451;-60
2024/04/05 00:26:02;;;;;;;8.43;4.50;;;14.30;99.90;;;;;;5010910;28;20937;-60
2024/04/05 00:28:28;;;;;;;6.60;3.23;;;14.40;99.90;;;;;;5011855;28;20415;-61
2024/04/05 00:30:54;;;;;;;4.40;3.07;;;14.30;99.90;;;;;;5011284;28;20421;-60
2024/04/05 00:33:21;;;;;;;4.00;3.70;;;14.40;99.90;;;;;;5011733;28;20539;-60
2024/04/05 00:35:51;;;;;;;6.40;3.80;;;14.40;99.90;;;;;;5011435;28;20819;-60
2024/04/05 00:38:18;;;;;;;4.43;4.03;;;14.40;99.90;;;;;;5011024;28;20397;-60
2024/04/05 00:40:45;;;;;;;5.23;4.10;;;14.40;99.90;;;;;;5011318;28;20412;-60
2024/04/05 00:43:11;;;;;;;11.17;4.90;;;14.40;99.90;;;;;;5011985;28;20425;-60
2024/04/05 00:45:41;;;;;;;6.00;4.30;;;14.40;99.90;;;;;;5011105;28;20446;-60
2024/04/05 00:48:08;;;;;;;5.07;4.27;;;14.50;99.90;;;;;;5000871;28;20431;-60
2024/04/05 00:50:36;;;;;;;7.33;4.60;;;14.40;99.90;;;;;;5010306;28;20463;-60
2024/04/05 00:53:02;;;;;;;7.57;3.90;;;14.40;99.90;;;;;;5010491;28;20589;-60
2024/04/05 00:55:30;;;;;;;4.17;3.77;;;14.50;99.90;;;;;;5012225;28;20414;-61
2024/04/05 00:58:02;;;;;;;4.03;3.60;;;14.50;99.90;;;;;;5011167;28;20503;-61
2024/04/05 01:00:29;;;;;;;5.23;4.60;;;14.50;99.90;;;;;;5011822;28;20477;-61
2024/04/05 01:02:55;;;;;;;8.27;4.63;;;14.50;99.90;;;;;;5011000;28;20475;-60
2024/04/05 01:05:21;;;;;;;5.70;4.37;;;14.40;99.90;;;;;;5011691;28;20428;-60
2024/04/05 01:07:52;;;;;;;8.57;4.00;;;14.40;99.90;;;;;;5009771;28;20413;-60
2024/04/05 01:10:19;;;;;;;7.27;4.33;;;14.40;99.90;;;;;;5010777;28;20397;-60
2024/04/05 01:12:45;;;;;;;4.17;3.73;;;14.40;99.90;;;;;;5010791;28;20459;-60
2024/04/05 01:15:11;;;;;;;6.47;5.13;;;14.40;99.90;;;;;;5011679;28;20431;-61
2024/04/05 01:17:37;;;;;;;4.73;4.10;;;14.40;99.90;;;;;;5009959;28;20663;-60
2024/04/05 01:20:06;;;;;;;6.23;4.10;;;14.40;99.90;;;;;;5010212;28;20639;-60
2024/04/05 01:22:41;;;;;;;5.90;5.37;;;14.40;99.90;;;;;;5011320;28;20238;-61
2024/04/05 01:25:06;;;;;;;7.83;4.00;;;14.30;99.90;;;;;;5013388;28;20399;-61
2024/04/05 01:27:32;;;;;;;6.90;4.33;;;14.30;99.90;;;;;;5014555;28;21005;-60
2024/04/05 01:29:58;;;;;;;5.63;3.90;;;14.30;99.90;;;;;;5013319;28;20181;-60
2024/04/05 01:32:23;;;;;;;5.40;3.17;;;14.30;99.90;;;;;;5015122;28;20675;-61
2024/04/05 01:34:49;;;;;;;11.53;4.73;;;14.30;99.90;;;;;;5014473;28;20184;-60
2024/04/05 01:37:16;;;;;;;9.23;4.13;;;14.30;99.90;;;;;;5015241;28;20240;-60
2024/04/05 01:39:42;;;;;;;4.80;4.13;;;14.20;99.90;;;;;;5014338;28;20250;-60
2024/04/05 01:42:07;;;;;;;4.67;3.97;;;14.20;99.90;;;;;;5014861;28;20475;-60
2024/04/05 01:44:33;;;;;;;3.93;3.20;;;14.20;99.90;;;;;;5007292;28;20640;-60
2024/04/05 01:46:59;;;;;;;5.63;3.60;;;14.20;99.90;;;;;;5011824;28;20548;-60
2024/04/05 01:49:25;;;;;;;6.20;3.40;;;14.30;99.90;;;;;;5013858;28;20180;-60
2024/04/05 01:51:50;;;;;;;11.90;4.07;;;14.30;99.90;;;;;;5013412;28;20221;-60
2024/04/05 01:54:16;;;;;;;6.00;4.17;;;14.30;99.90;;;;;;5014462;28;20188;-60
2024/04/05 01:56:42;;;;;;;4.93;3.77;;;14.30;99.90;;;;;;5013904;28;20264;-60
2024/04/05 01:59:08;;;;;;;6.93;4.13;;;14.40;99.90;;;;;;5014608;28;20188;-60
2024/04/05 02:01:34;;;;;;;4.60;4.17;;;14.30;99.90;;;;;;5014484;28;20260;-59
2024/04/05 02:04:00;;;;;;;8.70;4.40;;;14.20;99.90;;;;;;5013546;28;20434;-60
2024/04/05 02:06:25;;;;;;;4.83;3.40;;;14.30;99.90;;;;;;5014501;28;20973;-60
2024/04/05 02:08:51;;;;;;;10.87;5.23;;;14.30;99.90;;;;;;5013790;28;20173;-60
2024/04/05 02:11:17;;;;;;;4.73;4.17;;;14.30;99.90;;;;;;5014767;28;20210;-60
2024/04/05 02:13:42;;;;;;;5.13;3.67;;;14.30;99.90;;;;;;5013362;28;20209;-60
2024/04/05 02:16:08;;;;;;;6.43;3.80;;;14.40;99.90;;;;;;5014482;28;20173;-60
2024/04/05 02:18:34;;;;;;;8.73;3.77;;;14.40;99.90;;;;;;5013682;28;20226;-60
2024/04/05 02:21:00;;;;;;;6.63;3.73;;;14.30;99.90;;;;;;5013483;28;20192;-60
2024/04/05 02:23:25;;;;;;;5.13;3.43;;;14.40;99.90;;;;;;5014779;28;20269;-60
2024/04/05 02:25:51;;;;;;;7.40;4.83;;;14.40;99.90;;;;;;5013654;28;20405;-60
2024/04/05 02:28:17;;;;;;;6.10;4.90;;;14.50;99.90;;;;;;5012694;28;20174;-63
2024/04/05 02:30:43;;;;;;;3.63;3.33;;;14.50;99.90;;;;;;5013492;28;20233;-60
2024/04/05 02:33:09;;;;;;;6.97;4.00;;;14.60;99.90;;;;;;5014401;28;20223;-60
2024/04/05 02:35:34;;;;;;;4.83;4.40;;;14.60;99.90;;;;;;5028743;28;20636;-60
2024/04/05 02:38:01;;;;;;;8.53;5.00;;;14.60;99.90;;;;;;5012889;28;20431;-60
2024/04/05 02:40:27;;;;;;;7.40;3.70;;;14.60;99.90;;;;;;5014232;28;20528;-60
2024/04/05 02:42:52;;;;;;;8.00;3.60;;;14.60;99.90;;;;;;5013512;28;20422;-60
2024/04/05 02:45:18;;;;;;;3.83;3.40;;;14.70;99.90;;;;;;5012718;28;20263;-60
2024/04/05 02:47:44;;;;;;;6.23;5.63;;;14.50;99.90;;;;;;5012095;28;20176;-60
2024/04/05 02:50:10;;;;;;;7.17;5.20;;;14.50;99.90;;;;;;5014112;28;20311;-60
2024/04/05 02:52:35;;;;;;;8.40;4.57;;;14.50;99.90;;;;;;5014064;28;20237;-60
2024/04/05 02:55:01;;;;;;;5.90;4.57;;;14.50;99.90;;;;;;5011823;28;20196;-60
2024/04/05 02:57:27;;;;;;;4.73;4.33;;;14.50;99.90;;;;;;5013864;28;20170;-60
2024/04/05 02:59:52;;;;;;;5.53;4.37;;;14.50;99.90;;;;;;5012998;28;20296;-60
2024/04/05 03:02:18;;;;;;;5.63;3.83;;;14.60;99.90;;;;;;5012773;28;20296;-61
2024/04/05 03:04:44;;;;;;;8.30;4.60;;;14.60;99.90;;;;;;5012976;28;20614;-60
2024/04/05 03:07:09;;;;;;;5.77;4.87;;;14.60;99.90;;;;;;5013585;28;20643;-60
2024/04/05 03:09:36;;;;;;;6.40;4.50;;;14.70;99.90;;;;;;5013606;28;20192;-61
2024/04/05 03:12:03;;;;;;;7.57;5.37;;;14.70;99.90;;;;;;5012565;28;20369;-60
2024/04/05 03:14:28;;;;;;;10.67;5.20;;;14.70;99.90;;;;;;5013791;28;20452;-60
2024/04/05 03:16:54;;;;;;;9.53;5.10;;;14.70;99.90;;;;;;5011778;28;20461;-60
2024/04/05 03:19:20;;;;;;;4.53;4.13;;;14.70;99.90;;;;;;5011967;28;20550;-60
2024/04/05 03:21:46;;;;;;;8.03;4.63;;;14.70;99.90;;;;;;5011384;28;20496;-60
2024/04/05 03:24:12;;;;;;;5.47;4.97;;;14.70;99.90;;;;;;5013453;28;20252;-60
2024/04/05 03:26:39;;;;;;;6.20;4.90;;;14.70;99.90;;;;;;5013390;28;20261;-60
2024/04/05 03:29:06;;;;;;;8.70;5.07;;;14.70;99.90;;;;;;5012198;28;20416;-60
2024/04/05 03:31:32;;;;;;;5.80;4.50;;;14.70;99.90;;;;;;5013104;28;20782;-61
2024/04/05 03:33:58;;;;;;;8.30;4.50;;;14.80;99.90;;;;;;5012442;28;20415;-60
2024/04/05 03:36:23;;;;;;;5.73;4.20;;;14.80;99.90;;;;;;5013090;28;20429;-60
2024/04/05 03:38:52;;;;;;;4.97;4.47;;;14.70;99.90;;;;;;5012606;28;20174;-60
2024/04/05 03:41:18;;;;;;;8.27;4.97;;;14.70;99.90;;;;;;5013093;28;20514;-60
2024/04/05 03:43:44;;;;;;;7.43;4.80;;;14.70;99.90;;;;;;5012543;28;20414;-60
2024/04/05 03:46:09;;;;;;;6.77;4.20;;;14.80;99.90;;;;;;5012976;28;20272;-61
2024/04/05 03:48:35;;;;;;;9.13;4.60;;;14.70;99.90;;;;;;5009946;28;20954;-60
2024/04/05 03:51:01;;;;;;;7.27;4.90;;;14.80;99.90;;;;;;5011979;28;20182;-60
2024/04/05 03:53:27;;;;;;;6.50;4.57;;;14.80;99.90;;;;;;5012523;28;20217;-60
2024/04/05 03:55:56;;;;;;;6.77;4.40;;;14.80;99.90;;;;;;5011697;28;20193;-60
2024/04/05 03:58:22;;;;;;;4.30;3.90;;;14.80;99.90;;;;;;5013023;28;20423;-60
2024/04/05 04:00:52;;;;;;;7.17;4.33;;;14.80;99.90;;;;;;5011206;28;20429;-62
2024/04/05 04:03:18;;;;;;;8.83;4.90;;;14.80;99.90;;;;;;5011881;28;20952;-62
2024/04/05 04:05:44;;;;;;;9.40;4.63;;;14.80;99.90;;;;;;5011647;28;20425;-61
2024/04/05 04:08:11;;;;;;;9.37;5.07;;;14.80;99.90;;;;;;5012467;28;20418;-62
2024/04/05 04:10:38;;;;;;;5.00;4.10;;;14.80;99.90;;;;;;5011869;28;20421;-62
2024/04/05 04:13:03;;;;;;;6.20;3.77;;;14.80;99.90;;;;;;5011611;28;20465;-62
2024/04/05 04:15:29;;;;;;;10.43;4.87;;;14.90;99.90;;;;;;5012222;28;20418;-62
2024/04/05 04:17:55;;;;;;;7.37;4.13;;;14.90;99.90;;;;;;5009778;28;20480;-62
2024/04/05 04:20:21;;;;;;;7.13;4.33;;;14.90;99.90;;;;;;5012257;28;20192;-62
2024/04/05 04:22:47;;;;;;;7.00;5.03;;;14.90;99.90;;;;;;5011608;28;20220;-60
2024/04/05 04:25:12;;;;;;;4.70;3.77;;;14.90;99.90;;;;;;5012525;28;20225;-62
2024/04/05 04:27:38;;;;;;;4.63;4.00;;;14.80;99.90;;;;;;5012419;28;20887;-62
2024/04/05 04:30:06;;;;;;;7.47;4.20;;;14.80;99.90;;;;;;5011618;28;20186;-62
2024/04/05 04:32:35;;;;;;;4.80;3.50;;;14.70;99.90;;;;;;5011113;28;20214;-62
2024/04/05 04:35:03;;;;;;;4.60;4.10;;;14.80;99.90;;;;;;5011410;28;20445;-62
2024/04/05 04:37:29;;;;;;;8.70;5.00;;;14.80;99.90;;;;;;5012386;28;20900;-62
2024/04/05 04:39:55;;;;;;;5.40;4.40;;;14.90;99.90;;;;;;5011012;28;20452;-62
2024/04/05 04:42:20;;;;;;;8.90;4.63;;;14.90;99.90;;;;;;5008756;28;20578;-62
2024/04/05 04:44:46;;;;;;;6.23;5.00;;;14.90;99.90;;;;;;5011183;28;20188;-61
2024/04/05 04:47:12;;;;;;;4.87;4.00;;;14.90;99.90;;;;;;5012418;28;20186;-62
2024/04/05 04:49:38;;;;;;;5.83;3.60;;;14.90;99.90;;;;;;5012556;28;20178;-62
2024/04/05 04:52:05;;;;;;;7.07;4.13;;;14.90;99.90;;;;;;5012008;28;20202;-62
2024/04/05 04:54:30;;;;;;;5.80;3.80;;;14.90;99.90;;;;;;5012156;28;20833;-62
2024/04/05 04:56:56;;;;;;;6.20;4.60;;;14.90;99.90;;;;;;5011355;28;20460;-62
2024/04/05 04:59:28;;;;;;;5.03;4.13;;;14.80;99.90;;;;;;5012864;28;20175;-62
2024/04/05 05:01:57;;;;;;;6.50;5.90;;;14.90;99.90;;;;;;5013649;28;20604;-65
2024/04/05 05:04:22;;;;;;;6.07;4.80;;;14.90;99.90;;;;;;5016067;28;20417;-62
2024/04/05 05:06:50;;;;;;;4.77;3.47;;;15.00;99.90;;;;;;5015440;28;20456;-62
2024/04/05 05:09:16;;;;;;;7.50;4.20;;;14.90;99.90;;;;;;5015657;28;20175;-63
2024/04/05 05:11:43;;;;;;;6.30;4.10;;;15.00;99.90;;;;;;5014933;28;20425;-63
2024/04/05 05:14:09;;;;;;;6.93;3.87;;;15.10;99.90;;;;;;5015598;28;20416;-64
2024/04/05 05:16:37;;;;;;;5.00;4.23;;;15.10;99.90;;;;;;5016072;28;20407;-63
2024/04/05 05:19:04;;;;;;;7.43;4.47;;;15.10;99.90;;;;;;5014195;28;20774;-62
2024/04/05 05:21:32;;;;;;;6.20;5.20;;;15.20;99.90;;;;;;5015184;28;20410;-62
2024/04/05 05:23:58;;;;;;;6.00;4.53;;;15.20;99.90;;;;;;5005189;28;20936;-62
2024/04/05 05:26:24;;;;;;;6.70;6.20;;;15.20;99.90;;;;;;5001744;28;20410;-63
2024/04/05 05:28:49;;;;;;;7.20;6.50;;;15.20;99.90;;;;;;5012442;28;20428;-62
2024/04/05 05:31:15;;;;;;;13.90;8.23;;;15.20;99.90;;;;;;5015241;28;20418;-63
2024/04/05 05:33:41;;;;;;;7.03;4.40;;;15.20;99.90;;;;;;5015214;28;20229;-62
2024/04/05 05:36:06;;;;;;;10.40;6.97;;;15.20;99.90;;;;;;5014840;28;20206;-62
2024/04/05 05:38:32;;;;;;;6.07;5.47;;;15.20;99.90;;;;;;5013662;28;20171;-63
2024/04/05 05:40:58;;;;;;;6.50;5.80;;;15.20;99.90;;;;;;5014201;28;20182;-62
2024/04/05 05:43:23;;;;;;;5.70;5.07;;;15.20;99.90;;;;;;5015583;28;20193;-62
2024/04/05 05:45:49;;;;;;;7.27;4.53;;;15.20;99.90;;;;;;5014974;28;20197;-62
2024/04/05 05:48:15;;;;;;;7.83;6.07;;;15.20;99.90;;;;;;5014843;28;20179;-62
2024/04/05 05:50:42;;;;;;;5.07;4.67;;;15.20;99.90;;;;;;5015351;28;20186;-62
2024/04/05 05:53:08;;;;;;;5.03;4.67;;;15.20;99.90;;;;;;5014728;28;20457;-62
2024/04/05 05:55:33;;;;;;;6.40;5.03;;;15.10;99.90;;;;;;5015434;28;20432;-62
2024/04/05 05:57:59;;;;;;;7.37;5.20;;;15.00;99.90;;;;;;5014743;28;20445;-62
2024/04/05 06:00:25;;;;;;;6.80;6.17;;;14.90;99.90;;;;;;5013843;28;20657;-62
2024/04/05 06:02:51;;;;;;;8.27;6.23;;;14.80;99.90;;;;;;5004236;28;20625;-62
2024/04/05 06:05:19;;;;;;;6.83;5.60;;;14.60;99.90;;;;;;5015151;28;20189;-62
2024/04/05 06:07:48;;;;;;;7.20;6.50;;;14.50;99.90;;;;;;5013895;28;20182;-62
2024/04/05 06:10:13;;;;;;;7.13;6.43;;;14.60;99.90;;;;;;5014712;28;20413;-62
2024/04/05 06:12:41;;;;;;;7.20;5.43;;;14.60;99.90;;;;;;5015039;28;20460;-65
2024/04/05 06:15:07;;;;;;;5.10;3.90;;;14.70;99.90;;;;;;5014136;28;20181;-64
2024/04/05 06:17:35;;;;;;;6.50;5.40;;;14.70;99.90;;;;;;5015134;28;20821;-62
2024/04/05 06:20:06;;;;;;;7.27;5.60;;;14.70;99.90;;;;;;5010592;28;20408;-62
2024/04/05 06:22:33;;;;;;;5.90;5.13;;;14.60;99.90;;;;;;5015024;28;20947;-62
2024/04/05 06:24:59;;;;;;;6.60;5.40;;;14.50;99.90;;;;;;5014230;28;20440;-62
2024/04/05 06:27:24;;;;;;;6.27;4.90;;;14.60;99.90;;;;;;5014733;28;20417;-62
2024/04/05 06:29:52;;;;;;;8.93;7.17;;;14.60;99.90;;;;;;5014821;28;20410;-62
2024/04/05 06:32:18;;;;;;;5.70;5.20;;;14.60;99.90;;;;;;5015031;28;20609;-61
2024/04/05 06:34:45;;;;;;;7.13;5.20;;;14.70;99.90;;;;;;5014438;28;20409;-62
2024/04/05 06:37:14;;;;;;;5.53;5.20;;;14.70;99.90;;;;;;5012401;28;20465;-62
2024/04/05 06:39:40;;;;;;;8.20;7.50;;;14.80;99.90;;;;;;5014292;28;20772;-61
2024/04/05 06:42:07;;;;;;;7.67;5.40;;;14.90;99.90;;;;;;5013348;28;20759;-61
2024/04/05 06:44:36;;;;;;;6.37;5.97;;;14.90;99.90;;;;;;5014192;28;20416;-62
2024/04/05 06:47:09;;;;;;;6.40;5.47;;;15.00;99.90;;;;;;5013599;28;20432;-61
2024/04/05 06:49:39;;;;;;;5.87;4.70;;;15.10;99.90;;;;;;5014067;28;20432;-62
2024/04/05 06:52:06;;;;;;;5.43;4.97;;;15.20;99.90;;;;;;5013438;28;20503;-62
2024/04/05 06:54:42;;;;;;;8.40;6.70;;;15.20;99.90;;;;;;5014118;28;20426;-62
2024/04/05 06:57:09;;;;;;;5.87;5.27;;;15.30;99.90;;;;;;5010640;28;20765;-61
2024/04/05 06:59:35;;;;;;;7.67;6.30;;;15.30;99.90;;;;;;5007476;28;20920;-65
2024/04/05 07:02:00;;;;;;;6.57;6.07;;;15.40;99.90;;;;;;5012668;28;20540;-61
2024/04/05 07:04:27;;;;;;;6.40;5.53;;;15.40;99.90;;;;;;5013618;28;20482;-61
2024/04/05 07:06:53;;;;;;;5.33;4.83;;;15.50;99.90;;;;;;5012491;28;20175;-61
2024/04/05 07:09:28;;;;;;;5.90;5.50;;;15.50;99.90;;;;;;5012083;28;20402;-61
2024/04/05 07:11:55;;;;;;;5.53;4.43;;;15.50;99.90;;;;;;5012919;28;20762;-62
2024/04/05 07:14:21;;;;;;;6.30;5.60;;;15.50;99.90;;;;;;5013317;28;20421;-61
2024/04/05 07:16:48;;;;;;;8.53;6.30;;;15.60;99.90;;;;;;5012575;28;20953;-62
2024/04/05 07:19:17;;;;;;;5.30;4.80;;;15.70;99.90;;;;;;5013214;28;20453;-61
2024/04/05 07:21:47;;;;;;;7.47;5.80;;;15.70;99.90;;;;;;5013615;28;20406;-61
2024/04/05 07:24:13;;;;;;;5.70;4.23;;;15.70;99.90;;;;;;5012897;28;20402;-61
2024/04/05 07:26:39;;;;;;;4.57;3.87;;;15.70;99.90;;;;;;5013881;28;20402;-61
2024/04/05 07:29:05;;;;;;;5.23;4.50;;;15.70;99.90;;;;;;5013085;28;20406;-61
2024/04/05 07:31:36;;;;;;;6.67;4.67;;;15.80;99.90;;;;;;5012624;28;20209;-61
2024/04/05 07:34:02;;;;;;;5.10;4.40;;;15.90;99.90;;;;;;5013072;28;20423;-61
2024/04/05 07:36:28;;;;;;;5.17;4.77;;;16.00;99.90;;;;;;5012515;28;20426;-61
2024/04/05 07:38:54;;;;;;;7.50;4.60;;;16.00;99.90;;;;;;5013483;28;20407;-61
2024/04/05 07:41:21;;;;;;;5.53;3.87;;;16.00;99.90;;;;;;5013716;28;20463;-61
2024/04/05 07:43:48;;;;;;;4.60;3.77;;;16.00;99.90;;;;;;5013121;28;20473;-61
2024/04/05 07:46:14;;;;;;;7.20;6.10;;;15.90;99.90;;;;;;5012853;28;20437;-61
2024/04/05 07:48:40;;;;;;;5.00;4.50;;;16.00;99.90;;;;;;5013415;28;20399;-61
2024/04/05 07:51:06;;;;;;;5.00;4.60;;;15.90;99.90;;;;;;5012695;28;20183;-61
2024/04/05 07:53:32;;;;;;;5.50;4.50;;;16.00;99.90;;;;;;5013143;28;20806;-62
2024/04/05 07:56:00;;;;;;;4.30;4.00;;;15.80;99.90;;;;;;5012990;28;20534;-61
2024/04/05 07:58:26;;;;;;;4.63;4.23;;;15.60;99.90;;;;;;5013133;28;20257;-61
2024/04/05 08:00:51;;;;;;;10.57;5.70;;;15.60;99.90;;;;;;5013153;28;20501;-61
2024/04/05 08:03:17;;;;;;;4.77;4.10;;;15.60;99.90;;;;;;5011056;28;20515;-61
2024/04/05 08:05:43;;;;;;;5.20;4.30;;;15.70;99.90;;;;;;5013057;28;20171;-62
2024/04/05 08:08:09;;;;;;;6.27;4.53;;;15.70;99.90;;;;;;5011333;28;20190;-61
2024/04/05 08:10:35;;;;;;;5.57;4.83;;;15.80;99.90;;;;;;5010828;28;20175;-61
2024/04/05 08:13:01;;;;;;;4.33;3.70;;;15.80;99.90;;;;;;5012447;28;20515;-61
2024/04/05 08:15:28;;;;;;;4.07;3.50;;;15.90;99.90;;;;;;5012671;28;20412;-61
2024/04/05 08:17:55;;;;;;;4.70;4.30;;;15.90;99.90;;;;;;5013035;28;20179;-61
2024/04/05 08:20:21;;;;;;;8.50;4.77;;;16.00;99.90;;;;;;5012375;28;20417;-61
2024/04/05 08:22:46;;;;;;;7.33;4.27;;;16.10;99.90;;;;;;5013247;28;20417;-62
2024/04/05 08:25:13;;;;;;;4.33;3.93;;;16.10;99.90;;;;;;5012291;28;20175;-61
2024/04/05 08:27:42;;;;;;;6.33;3.97;;;16.20;99.90;;;;;;5012872;28;20175;-61
2024/04/05 08:30:12;;;;;;;6.10;4.40;;;16.30;99.90;;;;;;5012507;28;20471;-62
2024/04/05 08:32:41;;;;;;;4.40;4.03;;;16.50;99.90;;;;;;5012490;28;20491;-61
2024/04/05 08:35:09;;;;;;;4.77;4.47;;;16.20;99.90;;;;;;5014039;28;20840;-61
2024/04/05 08:37:38;;;;;;;4.57;4.27;;;16.20;99.90;;;;;;5016981;28;20421;-61
2024/04/05 08:40:05;;;;;;;4.67;4.27;;;16.30;99.90;;;;;;5016122;28;20475;-61
2024/04/05 08:42:34;;;;;;;4.07;3.80;;;16.50;99.90;;;;;;5014626;28;20429;-61
2024/04/05 08:45:06;;;;;;;4.10;3.53;;;16.60;99.90;;;;;;5016135;28;20406;-61
2024/04/05 08:47:33;;;;;;;5.03;4.57;;;16.70;99.90;;;;;;5016706;28;20390;-61
2024/04/05 08:50:01;;;;;;;4.87;3.00;;;16.80;99.90;;;;;;5016940;28;20413;-62
2024/04/05 08:52:27;;;;;;;6.30;5.93;;;16.90;99.90;;;;;;5016463;28;20465;-61
2024/04/05 08:54:55;;;;;;;4.90;4.57;;;16.90;99.90;;;;;;5013651;28;20956;-61
2024/04/05 08:57:27;;;;;;;3.50;3.20;;;17.00;99.90;;;;;;4996127;28;20262;-61
2024/04/05 08:59:54;;;;;;;3.63;2.93;;;17.00;99.90;;;;;;4997238;28;20395;-61
2024/04/05 09:02:23;;;;;;;5.60;5.17;;;17.00;99.90;;;;;;4995652;28;20801;-61
2024/04/05 09:04:49;;;;;;;4.40;3.40;;;16.80;99.90;;;;;;4997132;28;20433;-62
2024/04/05 09:07:15;;;;;;;3.63;3.33;;;16.90;99.90;;;;;;4994862;28;20425;-61
2024/04/05 09:09:46;;;;;;;7.87;5.17;;;16.90;99.90;;;;;;4996608;28;20407;-61
2024/04/05 09:12:14;;;;;;;5.33;4.83;;;16.90;99.90;;;;;;5010193;28;20202;-61
2024/04/05 09:14:41;;;;;;;5.30;4.87;;;16.90;99.90;;;;;;5015401;28;20434;-61
2024/04/05 09:17:13;;;;;;;4.33;3.60;;;16.80;99.90;;;;;;5015558;28;20414;-61
2024/04/05 09:19:40;;;;;;;5.70;3.70;;;16.70;99.90;;;;;;5015481;28;20426;-61
2024/04/05 09:22:07;;;;;;;3.40;3.10;;;16.70;99.90;;;;;;5014587;28;20398;-61
2024/04/05 09:24:33;;;;;;;3.50;3.20;;;16.70;99.90;;;;;;4996416;28;20486;-61
2024/04/05 09:27:00;;;;;;;4.30;3.77;;;16.70;99.90;;;;;;4996508;28;20415;-61
2024/04/05 09:29:27;;;;;;;3.30;3.00;;;16.80;99.90;;;;;;4996023;28;20399;-61
2024/04/05 09:31:54;;;;;;;3.40;3.20;;;16.80;99.90;;;;;;4996098;28;20909;-61
2024/04/05 09:34:25;;;;;;;3.60;3.30;;;16.80;99.90;;;;;;4995550;28;20433;-61
2024/04/05 09:36:51;;;;;;;9.63;3.93;;;16.90;99.90;;;;;;4996271;28;20458;-61
2024/04/05 09:39:21;;;;;;;3.83;3.30;;;16.90;99.90;;;;;;4995489;28;20413;-61
2024/04/05 09:41:49;;;;;;;5.10;2.97;;;16.90;99.90;;;;;;4996065;28;20411;-61
2024/04/05 09:44:17;;;;;;;7.70;3.87;;;16.80;99.90;;;;;;4995398;28;20411;-61
2024/04/05 09:46:43;;;;;;;4.50;3.70;;;16.90;99.90;;;;;;4995518;28;20460;-61
2024/04/05 09:49:11;;;;;;;2.90;2.70;;;16.90;99.90;;;;;;5001602;28;20513;-61
2024/04/05 09:51:45;;;;;;;5.47;4.60;;;16.90;99.90;;;;;;5014742;28;20520;-61
2024/04/05 09:54:17;;;;;;;6.83;4.33;;;16.90;99.90;;;;;;5015228;28;20415;-61
2024/04/05 09:56:44;;;;;;;3.10;2.80;;;17.00;99.90;;;;;;5015392;28;20480;-61
2024/04/05 09:59:18;;;;;;;5.40;5.00;;;17.10;99.90;;;;;;5014813;28;20407;-61
2024/04/05 10:01:46;;;;;;;3.20;3.00;;;17.10;99.90;;;;;;5013017;28;20437;-61
2024/04/05 10:04:12;;;;;;;3.17;2.97;;;17.20;99.90;;;;;;5014663;28;20826;-61
2024/04/05 10:06:39;;;;;;;3.50;2.50;;;17.00;99.90;;;;;;5014983;28;20418;-61
2024/04/05 10:09:15;;;;;;;4.90;4.47;;;17.00;99.90;;;;;;5014593;28;20406;-61
2024/04/05 10:11:42;;;;;;;3.80;3.60;;;17.00;99.90;;;;;;5014061;28;20926;-61
2024/04/05 10:14:08;;;;;;;3.40;3.10;;;17.00;99.90;;;;;;5014818;28;20441;-61
2024/04/05 10:16:34;;;;;;;3.33;3.13;;;17.10;99.90;;;;;;5015168;28;20776;-61
2024/04/05 10:19:12;;;;;;;3.33;3.13;;;17.10;99.90;;;;;;5014926;28;20410;-62
2024/04/05 10:21:37;;;;;;;3.93;3.73;;;17.10;99.90;;;;;;5014131;28;20270;-62
2024/04/05 10:24:06;;;;;;;3.30;3.10;;;17.10;99.90;;;;;;5014928;28;20509;-62
2024/04/05 10:26:34;;;;;;;5.80;5.30;;;17.10;99.90;;;;;;5014941;28;20429;-62
2024/04/05 10:29:04;;;;;;;4.53;4.33;;;17.10;99.90;;;;;;5014800;28;20441;-62
2024/04/05 10:31:36;;;;;;;3.70;3.40;;;17.00;99.90;;;;;;5014696;28;20468;-62
2024/04/05 10:34:03;;;;;;;5.97;5.47;;;17.00;99.90;;;;;;5014687;28;20817;-62
2024/04/05 10:36:32;;;;;;;4.10;3.80;;;17.10;99.90;;;;;;5014038;28;20410;-62
2024/04/05 10:39:00;;;;;;;4.63;4.20;;;17.10;99.90;;;;;;5014876;28;20857;-62
2024/04/05 10:41:26;;;;;;;3.23;2.90;;;17.10;99.90;;;;;;5013834;28;20742;-64
2024/04/05 10:44:04;;;;;;;5.50;4.87;;;17.00;99.90;;;;;;5013627;28;20434;-62
2024/04/05 10:46:31;;;;;;;4.10;3.90;;;17.00;99.90;;;;;;5011478;28;20418;-66
2024/04/05 10:49:00;;;;;;;4.80;4.47;;;17.00;99.90;;;;;;5009790;28;20530;-65
2024/04/05 10:51:26;;;;;;;4.10;3.70;;;17.00;99.90;;;;;;5010733;28;20910;-64
2024/04/05 10:53:54;;;;;;;4.10;3.80;;;17.10;99.90;;;;;;5013266;28;20500;-65
2024/04/05 10:56:26;;;;;;;5.53;3.70;;;17.10;99.90;;;;;;5012564;28;20406;-62
2024/04/05 10:58:52;;;;;;;3.40;3.10;;;17.10;99.90;;;;;;5011295;28;20817;-62
2024/04/05 11:01:17;;;;;;;3.20;3.00;;;17.20;99.90;;;;;;5013165;28;20418;-62
2024/04/05 11:03:43;;;;;;;3.60;3.30;;;17.20;99.90;;;;;;5013675;28;20230;-62
2024/04/05 11:06:09;;;;;;;4.50;2.93;;;17.20;99.90;;;;;;5012320;28;20275;-65
2024/04/05 11:08:35;;;;;;;2.83;2.60;;;17.20;99.90;;;;;;5013919;28;20183;-62
2024/04/05 11:11:11;;;;;;;2.97;2.60;;;17.30;99.90;;;;;;5014025;28;20666;-62
2024/04/05 11:13:36;;;;;;;5.47;5.27;;;17.40;99.90;;;;;;5014028;28;20429;-62
2024/04/05 11:16:02;;;;;;;3.20;2.90;;;17.30;99.90;;;;;;5013905;28;20430;-62
2024/04/05 11:18:38;;;;;;;3.67;3.33;;;17.30;99.90;;;;;;5013209;28;20273;-62
2024/04/05 11:21:05;;;;;;;4.57;4.17;;;17.30;99.90;;;;;;5012793;28;20178;-62
2024/04/05 11:23:31;;;;;;;3.50;3.20;;;17.30;99.90;;;;;;5013199;28;20429;-62
2024/04/05 11:25:58;;;;;;;5.47;4.33;;;17.20;99.90;;;;;;5012607;28;20445;-66
2024/04/05 11:28:24;;;;;;;4.43;3.60;;;17.20;99.90;;;;;;5012578;28;20414;-62
2024/04/05 11:30:51;;;;;;;3.13;2.83;;;17.10;99.90;;;;;;5012743;28;20772;-63
2024/04/05 11:33:18;;;;;;;3.67;3.37;;;17.10;99.90;;;;;;5012895;28;21011;-62
2024/04/05 11:35:45;;;;;;;4.40;3.53;;;17.20;99.90;;;;;;5013421;28;20450;-62
2024/04/05 11:38:12;;;;;;;4.90;4.50;;;17.20;99.90;;;;;;5011418;28;20904;-61
2024/04/05 11:40:38;;;;;;;4.23;2.70;;;17.20;99.90;;;;;;5013299;28;20497;-62
2024/04/05 11:43:08;;;;;;;4.90;2.93;;;17.10;99.90;;;;;;5013448;28;20506;-62
2024/04/05 11:45:38;;;;;;;3.60;3.30;;;17.10;99.90;;;;;;5013792;28;20170;-62
2024/04/05 11:48:04;;;;;;;3.43;3.20;;;17.30;99.90;;;;;;5012187;28;20425;-64
2024/04/05 11:50:33;;;;;;;5.33;4.83;;;17.50;99.90;;;;;;5012483;28;21471;-62
2024/04/05 11:53:02;;;;;;;3.63;3.40;;;17.60;99.90;;;;;;5013135;28;20461;-62
2024/04/05 11:55:28;;;;;;;4.00;3.53;;;17.70;99.90;;;;;;5012099;28;20457;-62
2024/04/05 11:57:54;;;;;;;4.13;3.83;;;17.70;99.90;;;;;;5012935;28;20413;-62
2024/04/05 12:00:20;;;;;;;3.70;3.40;;;17.80;99.90;;;;;;5012388;28;20206;-62
2024/04/05 12:02:45;;;;;;;3.90;3.70;;;17.70;99.90;;;;;;5012325;28;20225;-63
2024/04/05 12:05:11;;;;;;;6.40;3.53;;;17.70;99.90;;;;;;5011456;28;20175;-61
2024/04/05 12:07:37;;;;;;;3.67;3.37;;;17.80;99.90;;;;;;5012699;28;20178;-63
2024/04/05 12:10:04;;;;;;;5.13;4.77;;;17.70;99.90;;;;;;5012236;28;20634;-63
2024/04/05 12:12:30;;;;;;;4.27;3.13;;;17.80;99.90;;;;;;5010947;28;20474;-63
2024/04/05 12:14:57;;;;;;;5.93;5.53;;;17.90;99.90;;;;;;5011630;28;20410;-63
2024/04/05 12:17:22;;;;;;;5.50;3.83;;;17.90;99.90;;;;;;5012362;28;20421;-63
2024/04/05 12:19:48;;;;;;;5.60;4.37;;;17.90;99.90;;;;;;5012855;28;20453;-63
2024/04/05 12:22:14;;;;;;;5.87;5.50;;;17.90;99.90;;;;;;5012361;28;20618;-62
2024/04/05 12:24:40;;;;;;;3.10;2.90;;;18.00;99.90;;;;;;5012853;28;20618;-63
2024/04/05 12:27:06;;;;;;;6.30;6.00;;;18.00;99.90;;;;;;5011955;28;20421;-63
2024/04/05 12:29:32;;;;;;;5.07;4.67;;;18.10;99.90;;;;;;5012144;28;20450;-63
2024/04/05 12:31:57;;;;;;;3.40;3.20;;;18.10;99.90;;;;;;5012034;28;20898;-62
2024/04/05 12:34:23;;;;;;;3.20;2.40;;;18.10;99.90;;;;;;5007690;28;20179;-63
2024/04/05 12:36:50;;;;;;;3.97;3.67;;;18.10;99.90;;;;;;5012134;28;20576;-62
2024/04/05 12:39:25;;;;;;;3.73;3.40;;;18.00;99.90;;;;;;5010530;28;20178;-61
2024/04/05 12:41:53;;;;;;;3.33;2.60;;;18.10;99.90;;;;;;5004976;28;20408;-61
2024/04/05 12:44:19;;;;;;;4.17;3.90;;;18.00;99.90;;;;;;5004138;28;20440;-62